Time;durP1;ratioP1;P1;durP2;ratioP2;P2;SDS_P1;SDS_P2;PMS_P1;PMS_P2;Temp;Humidity;BMP_temperature;BMP_pressure;BME280_temperature;BME280_humidity;BME280_pressure;Samples;Min_cycle;Max_cycle;Signal;HPM_P1;HPM_P2
2022/01/29 00:00:32;;;;;;;28.27;16.37;;;;;;;3.29;82.70;102178.63;5022965;28;20902;-79
2022/01/29 00:02:58;;;;;;;32.85;20.13;;;;;;;3.23;82.82;102172.03;5014162;28;20407;-79
2022/01/29 00:05:23;;;;;;;22.13;14.10;;;;;;;3.23;82.91;102176.56;5026363;28;20965;-79
2022/01/29 00:07:48;;;;;;;21.47;13.93;;;;;;;3.21;83.05;102160.63;5015027;28;20519;-79
2022/01/29 00:10:14;;;;;;;23.63;13.43;;;;;;;3.29;82.74;102162.53;5020605;28;20714;-79
2022/01/29 00:12:40;;;;;;;23.20;14.27;;;;;;;3.26;83.00;102162.84;5015751;28;20401;-79
2022/01/29 00:15:06;;;;;;;23.05;13.60;;;;;;;3.25;82.78;102150.44;5011983;28;20462;-79
2022/01/29 00:17:32;;;;;;;22.20;15.20;;;;;;;3.20;82.56;102147.38;5011654;28;20397;-79
2022/01/29 00:19:57;;;;;;;24.47;15.57;;;;;;;3.05;82.90;102139.91;5013763;28;20419;-80
2022/01/29 00:22:23;;;;;;;22.30;14.10;;;;;;;2.93;83.47;102145.69;5013309;28;20470;-79
2022/01/29 00:24:48;;;;;;;23.25;14.80;;;;;;;2.93;83.89;102154.53;5024461;28;20868;-79
2022/01/29 00:27:14;;;;;;;26.38;14.40;;;;;;;2.92;84.09;102165.41;5026300;28;20419;-79
2022/01/29 00:29:41;;;;;;;20.85;13.68;;;;;;;2.95;83.74;102175.81;5024721;28;20760;-79
2022/01/29 00:32:08;;;;;;;21.87;14.37;;;;;;;2.88;83.88;102180.09;5029577;28;20402;-79
2022/01/29 00:34:34;;;;;;;24.85;14.80;;;;;;;2.90;84.02;102180.78;5016642;28;20503;-79
2022/01/29 00:37:00;;;;;;;23.60;14.40;;;;;;;2.86;84.53;102169.56;5021185;28;20503;-78
2022/01/29 00:39:25;;;;;;;21.75;14.23;;;;;;;2.90;83.91;102172.72;5014694;28;20403;-79
2022/01/29 00:41:51;;;;;;;24.07;14.50;;;;;;;2.82;84.30;102178.88;5021624;28;20423;-79
2022/01/29 00:44:16;;;;;;;21.70;13.82;;;;;;;2.90;84.55;102167.38;5014853;28;20887;-79
2022/01/29 00:46:42;;;;;;;22.25;14.32;;;;;;;2.93;84.24;102165.25;5019611;28;20403;-79
2022/01/29 00:49:12;;;;;;;25.97;14.90;;;;;;;2.89;84.29;102166.56;5032178;28;20407;-79
2022/01/29 00:51:38;;;;;;;21.40;13.95;;;;;;;2.90;84.34;102170.06;5014970;28;20405;-79
2022/01/29 00:54:04;;;;;;;25.00;14.55;;;;;;;2.88;84.62;102164.88;5014583;28;20413;-79
2022/01/29 00:56:29;;;;;;;22.88;14.52;;;;;;;2.87;84.26;102159.66;5014477;28;20424;-79
2022/01/29 00:58:54;;;;;;;25.10;14.93;;;;;;;2.88;84.05;102161.34;5024361;28;20432;-79
2022/01/29 01:01:20;;;;;;;24.03;15.07;;;;;;;2.85;84.26;102154.47;5015244;28;20415;-79
2022/01/29 01:03:45;;;;;;;22.67;14.77;;;;;;;2.94;84.15;102137.47;5013263;28;20415;-79
2022/01/29 01:06:10;;;;;;;24.15;15.10;;;;;;;2.95;83.69;102144.53;5014350;28;20411;-79
2022/01/29 01:08:36;;;;;;;23.70;15.97;;;;;;;2.88;83.81;102140.78;5021410;28;20418;-79
2022/01/29 01:11:02;;;;;;;24.83;15.10;;;;;;;2.88;84.04;102159.50;5024000;28;20798;-79
2022/01/29 01:13:28;;;;;;;24.40;15.45;;;;;;;2.92;84.11;102160.91;5030396;28;20771;-79
2022/01/29 01:15:53;;;;;;;25.27;15.43;;;;;;;3.06;83.66;102157.66;5022535;28;20399;-79
2022/01/29 01:18:19;;;;;;;25.37;15.17;;;;;;;3.10;82.99;102158.19;5020810;28;20403;-79
2022/01/29 01:20:44;;;;;;;22.73;14.20;;;;;;;3.14;82.79;102152.38;5034223;28;20867;-79
2022/01/29 01:23:09;;;;;;;22.13;14.63;;;;;;;3.11;82.78;102150.00;5027251;28;20856;-79
2022/01/29 01:25:35;;;;;;;22.57;15.33;;;;;;;3.10;83.12;102140.28;5018195;28;20428;-79
2022/01/29 01:28:00;;;;;;;25.13;15.30;;;;;;;3.06;83.63;102143.44;5026561;28;20784;-79
2022/01/29 01:30:25;;;;;;;23.47;15.00;;;;;;;3.08;82.87;102134.25;5014635;28;20500;-79
2022/01/29 01:32:51;;;;;;;22.50;14.53;;;;;;;3.10;82.97;102134.94;5022281;28;20405;-79
2022/01/29 01:35:22;;;;;;;22.97;14.97;;;;;;;3.11;82.99;102125.06;5016277;28;20389;-79
2022/01/29 01:37:58;;;;;;;26.33;16.38;;;;;;;3.06;83.06;102113.97;5015223;28;20492;-79
2022/01/29 01:40:25;;;;;;;25.40;14.50;;;;;;;2.97;83.74;102120.25;5026564;28;20414;-79
2022/01/29 01:42:58;;;;;;;22.05;13.75;;;;;;;2.94;84.02;102115.19;5037099;28;20496;-79
2022/01/29 01:45:23;;;;;;;21.53;14.33;;;;;;;2.87;84.07;102117.66;5025760;28;20393;-79
2022/01/29 01:47:48;;;;;;;21.70;14.03;;;;;;;2.96;83.72;102115.91;5030708;28;20747;-79
2022/01/29 01:50:14;;;;;;;23.63;14.73;;;;;;;2.92;83.92;102118.06;5030369;28;20393;-79
2022/01/29 01:52:39;;;;;;;21.95;14.25;;;;;;;2.93;83.95;102118.91;5018351;28;20784;-78
2022/01/29 01:55:05;;;;;;;26.73;15.97;;;;;;;2.87;83.69;102093.56;5017834;28;20931;-78
2022/01/29 01:57:30;;;;;;;21.57;14.60;;;;;;;2.91;84.03;102086.06;5020972;28;20401;-78
2022/01/29 01:59:55;;;;;;;22.27;14.67;;;;;;;2.92;83.82;102093.09;5019013;28;20484;-79
2022/01/29 02:02:21;;;;;;;24.70;15.83;;;;;;;2.87;84.25;102093.56;5012961;28;20875;-79
2022/01/29 02:04:46;;;;;;;21.60;14.90;;;;;;;2.91;84.16;102100.28;5025147;28;20486;-79
2022/01/29 02:07:12;;;;;;;23.85;14.70;;;;;;;2.95;83.91;102108.88;5012927;28;20416;-79
2022/01/29 02:09:39;;;;;;;23.43;15.57;;;;;;;2.94;83.71;102096.47;5022423;28;20408;-79
2022/01/29 02:12:04;;;;;;;26.10;16.15;;;;;;;2.95;83.49;102098.16;5023616;28;20414;-79
2022/01/29 02:14:32;;;;;;;25.13;15.15;;;;;;;2.93;83.59;102092.13;5017621;28;20748;-79
2022/01/29 02:16:59;;;;;;;22.85;14.95;;;;;;;2.97;83.66;102083.59;5020193;28;20441;-79
2022/01/29 02:19:25;;;;;;;24.70;15.93;;;;;;;2.90;83.44;102081.69;5016505;28;20544;-79
2022/01/29 02:21:50;;;;;;;22.97;15.50;;;;;;;2.87;83.93;102068.63;5015483;28;20407;-78
2022/01/29 02:24:15;;;;;;;22.87;16.13;;;;;;;2.84;83.87;102063.56;5021953;28;20412;-79
2022/01/29 02:26:41;;;;;;;26.77;16.97;;;;;;;2.86;83.89;102056.25;5034379;28;20410;-79
2022/01/29 02:29:06;;;;;;;25.17;15.93;;;;;;;2.92;83.48;102051.13;5021233;28;20471;-79
2022/01/29 02:31:32;;;;;;;21.80;15.20;;;;;;;2.88;83.67;102055.09;5013606;28;20795;-79
2022/01/29 02:33:57;;;;;;;24.67;16.02;;;;;;;2.92;83.64;102048.44;5014841;28;20476;-79
2022/01/29 02:36:23;;;;;;;28.00;19.60;;;;;;;2.93;83.20;102039.38;5024722;28;20801;-78
2022/01/29 02:38:49;;;;;;;29.75;19.75;;;;;;;2.92;83.43;102043.06;5019759;28;20415;-79
2022/01/29 02:41:14;;;;;;;25.90;17.77;;;;;;;2.86;83.90;102038.34;5016848;28;20417;-79
2022/01/29 02:43:46;;;;;;;29.63;18.38;;;;;;;2.85;84.03;102033.97;5021867;28;20439;-79
2022/01/29 02:48:48;;;;;;;25.30;17.58;;;;;;;2.85;84.60;102038.50;5025844;28;20786;-79
2022/01/29 02:51:13;;;;;;;29.67;18.65;;;;;;;2.87;83.97;102033.81;5021540;28;20771;-79
2022/01/29 02:53:39;;;;;;;27.83;17.53;;;;;;;2.86;83.46;102027.66;5016671;28;20484;-78
2022/01/29 02:56:05;;;;;;;24.65;17.30;;;;;;;2.85;83.86;102033.13;5027558;28;20413;-79
2022/01/29 02:58:31;;;;;;;30.40;18.40;;;;;;;2.83;83.92;102027.13;5012034;28;20507;-79
2022/01/29 03:00:56;;;;;;;25.13;17.25;;;;;;;2.77;83.95;102031.22;5021795;28;20419;-79
2022/01/29 03:03:21;;;;;;;26.25;17.08;;;;;;;2.74;83.86;102022.66;5030382;28;20402;-79
2022/01/29 03:05:47;;;;;;;27.00;17.60;;;;;;;2.69;84.27;102019.63;5025139;28;20886;-79
2022/01/29 03:08:12;;;;;;;27.97;17.67;;;;;;;2.73;84.11;102018.34;5012311;28;20423;-79
2022/01/29 03:10:38;;;;;;;27.27;17.73;;;;;;;2.67;84.27;102021.63;5020400;28;20402;-78
2022/01/29 03:13:03;;;;;;;28.02;18.13;;;;;;;2.62;84.65;102016.75;5015980;28;20496;-79
2022/01/29 03:15:29;;;;;;;28.55;17.67;;;;;;;2.58;84.47;102015.38;5013429;28;20476;-78
2022/01/29 03:17:55;;;;;;;27.10;17.40;;;;;;;2.58;84.36;102008.19;5029808;28;20502;-78
2022/01/29 03:20:20;;;;;;;25.77;16.70;;;;;;;2.57;84.67;102013.66;5015750;28;20420;-79
2022/01/29 03:22:45;;;;;;;27.57;17.73;;;;;;;2.43;84.85;102014.25;5012259;28;20441;-79
2022/01/29 03:25:10;;;;;;;26.70;18.03;;;;;;;2.43;84.72;102015.09;5026477;28;20847;-78
2022/01/29 03:27:36;;;;;;;28.77;19.63;;;;;;;2.49;84.35;102010.94;5015744;28;20420;-79
2022/01/29 03:30:03;;;;;;;25.70;17.77;;;;;;;2.40;84.61;102007.38;5018561;28;20431;-78
2022/01/29 03:32:28;;;;;;;28.83;17.90;;;;;;;2.36;84.87;101999.81;5037271;28;20433;-79
2022/01/29 03:34:54;;;;;;;27.67;17.67;;;;;;;2.36;85.43;102002.47;5028376;28;20411;-79
2022/01/29 03:37:19;;;;;;;26.40;18.37;;;;;;;2.35;85.18;101998.94;5014356;28;20397;-79
2022/01/29 03:39:46;;;;;;;25.77;17.90;;;;;;;2.39;84.90;102005.69;5012373;28;20416;-79
2022/01/29 03:42:13;;;;;;;32.65;18.98;;;;;;;2.41;84.91;102002.84;5027007;28;20418;-78
2022/01/29 03:44:39;;;;;;;26.30;17.77;;;;;;;2.42;84.99;102005.38;5019756;28;20531;-79
2022/01/29 03:47:04;;;;;;;29.50;17.83;;;;;;;2.49;84.62;101993.06;5014863;28;20467;-79
2022/01/29 03:49:30;;;;;;;30.90;18.90;;;;;;;2.44;84.41;101991.81;5016928;28;20406;-79
2022/01/29 03:51:55;;;;;;;29.00;18.27;;;;;;;2.36;85.04;101991.78;5022532;28;20765;-78
2022/01/29 03:54:20;;;;;;;27.90;17.83;;;;;;;2.35;84.77;101982.91;5010950;28;20737;-79
2022/01/29 03:56:45;;;;;;;27.92;17.50;;;;;;;2.37;84.67;101986.25;5022359;28;20389;-79
2022/01/29 03:59:11;;;;;;;26.83;17.63;;;;;;;2.33;84.60;101987.56;5014532;28;20819;-79
2022/01/29 04:01:36;;;;;;;26.63;16.97;;;;;;;2.29;85.07;101972.81;5022949;28;20431;-78
2022/01/29 04:04:02;;;;;;;28.83;18.03;;;;;;;2.35;85.26;101974.03;5030373;28;20468;-79
2022/01/29 04:06:27;;;;;;;31.33;18.40;;;;;;;2.37;85.43;101974.72;5015673;28;20436;-79
2022/01/29 04:08:52;;;;;;;28.43;17.17;;;;;;;2.30;85.63;101976.34;5010334;28;20426;-79
2022/01/29 04:11:18;;;;;;;27.40;17.17;;;;;;;2.33;85.42;101973.34;5012912;28;20872;-79
2022/01/29 04:13:46;;;;;;;28.50;17.47;;;;;;;2.31;85.35;101970.81;5012266;28;20468;-79
2022/01/29 04:16:13;;;;;;;26.80;17.52;;;;;;;2.35;85.12;101974.88;5024401;28;20407;-79
2022/01/29 04:18:39;;;;;;;29.15;17.90;;;;;;;2.42;84.88;101975.09;5014569;28;20413;-80
2022/01/29 04:21:05;;;;;;;25.50;17.33;;;;;;;2.48;84.62;101977.16;5011182;28;20498;-79
2022/01/29 04:23:31;;;;;;;27.08;18.20;;;;;;;2.50;84.50;101975.19;5026333;28;20847;-79
2022/01/29 04:25:57;;;;;;;29.88;19.13;;;;;;;2.49;84.53;101962.78;5016032;28;20403;-79
2022/01/29 04:28:29;;;;;;;30.97;17.70;;;;;;;2.53;84.62;101972.19;5014386;28;20420;-79
2022/01/29 04:30:59;;;;;;;26.73;16.90;;;;;;;2.51;84.23;101969.66;5011520;28;20730;-79
2022/01/29 04:33:28;;;;;;;28.67;17.75;;;;;;;2.57;84.38;101971.69;5017512;28;20400;-79
2022/01/29 04:35:55;;;;;;;31.00;18.83;;;;;;;2.58;84.38;101986.78;5011381;28;20898;-79
2022/01/29 04:38:20;;;;;;;26.45;16.55;;;;;;;2.56;84.54;101985.25;5025754;28;20456;-79
2022/01/29 04:40:46;;;;;;;29.37;18.07;;;;;;;2.49;84.39;102002.91;5023081;28;20488;-79
2022/01/29 04:43:11;;;;;;;27.13;16.95;;;;;;;2.49;84.62;102006.44;5021511;28;20404;-79
2022/01/29 04:45:36;;;;;;;29.47;18.53;;;;;;;2.56;84.08;102003.97;5010128;28;20401;-79
2022/01/29 04:48:02;;;;;;;27.77;17.50;;;;;;;2.57;84.23;102000.28;5027342;28;20461;-79
2022/01/29 04:50:27;;;;;;;26.48;17.83;;;;;;;2.53;84.54;101986.41;5016525;28;20888;-79
2022/01/29 04:52:52;;;;;;;26.52;17.48;;;;;;;2.57;83.85;101993.09;5026796;28;20390;-79
2022/01/29 04:55:18;;;;;;;24.77;16.37;;;;;;;2.50;84.37;101986.69;5014896;28;21024;-79
2022/01/29 04:57:43;;;;;;;26.70;16.60;;;;;;;2.59;84.28;101985.78;5020720;28;20399;-79
2022/01/29 05:00:12;;;;;;;27.47;16.13;;;;;;;2.58;83.99;101989.44;5018125;28;20397;-79
2022/01/29 05:02:38;;;;;;;25.20;16.67;;;;;;;2.55;84.11;101991.59;5011131;28;20424;-79
2022/01/29 05:05:05;;;;;;;32.53;18.52;;;;;;;2.47;84.22;101980.84;5014205;28;20427;-79
2022/01/29 05:07:31;;;;;;;27.05;16.73;;;;;;;2.54;84.21;101985.41;5017204;28;20460;-79
2022/01/29 05:09:56;;;;;;;29.50;19.13;;;;;;;2.56;84.38;101986.09;5012707;28;20434;-79
2022/01/29 05:12:28;;;;;;;27.57;17.33;;;;;;;2.57;83.90;101997.63;5014175;28;20903;-79
2022/01/29 05:26:50;;;;;;;26.77;16.73;;;;;;;2.62;83.39;101998.00;5017161;28;20871;-79
2022/01/29 05:28:37;;;;;;;26.83;16.40;;;;;;;2.60;83.40;101970.56;5024003;28;20541;-79
2022/01/29 05:31:02;;;;;;;27.03;16.97;;;;;;;2.48;83.53;101980.66;5018359;28;20428;-79
2022/01/29 05:33:27;;;;;;;20.33;14.60;;;;;;;2.53;83.86;101981.06;5016172;28;20432;-79
2022/01/29 05:35:53;;;;;;;23.17;15.57;;;;;;;2.60;83.49;101971.38;5026588;28;20431;-79
2022/01/29 05:38:18;;;;;;;25.30;15.00;;;;;;;2.57;83.68;101965.50;5030724;28;20506;-79
2022/01/29 05:40:43;;;;;;;27.20;16.53;;;;;;;2.61;83.63;101948.13;5029173;28;20415;-79
2022/01/29 05:43:09;;;;;;;24.03;15.90;;;;;;;2.59;83.26;101948.31;5032258;28;20449;-79
2022/01/29 05:45:34;;;;;;;26.07;15.43;;;;;;;2.60;83.57;101941.94;5027842;28;20417;-79
2022/01/29 05:47:59;;;;;;;22.35;14.68;;;;;;;2.61;83.49;101934.75;5018613;28;20434;-80
2022/01/29 05:50:25;;;;;;;21.30;14.67;;;;;;;2.66;83.26;101934.31;5023359;28;20403;-79
2022/01/29 05:52:50;;;;;;;24.73;15.60;;;;;;;2.55;83.31;101932.72;5014411;28;20417;-79
2022/01/29 05:55:15;;;;;;;21.55;14.07;;;;;;;2.55;83.39;101922.84;5028484;28;20405;-79
2022/01/29 05:57:40;;;;;;;20.93;13.77;;;;;;;2.56;83.35;101918.34;5020866;28;20870;-79
2022/01/29 06:00:06;;;;;;;24.43;14.73;;;;;;;2.54;83.48;101920.31;5015243;28;20412;-78
2022/01/29 06:02:31;;;;;;;24.55;15.10;;;;;;;2.56;83.22;101919.19;5013711;28;20393;-79
2022/01/29 06:04:57;;;;;;;21.33;14.73;;;;;;;2.63;82.98;101917.53;5024184;28;20544;-79
2022/01/29 06:07:22;;;;;;;22.43;15.30;;;;;;;2.58;83.04;101919.88;5013838;28;20787;-79
2022/01/29 06:09:48;;;;;;;20.77;14.50;;;;;;;2.65;82.35;101924.56;5020793;28;20458;-79
2022/01/29 06:12:13;;;;;;;24.45;15.93;;;;;;;2.58;82.48;101922.53;5016128;28;20867;-79
2022/01/29 06:14:39;;;;;;;24.43;15.30;;;;;;;2.58;82.49;101927.91;5021749;28;20508;-78
2022/01/29 06:17:04;;;;;;;21.40;14.60;;;;;;;2.62;82.35;101952.50;5019997;28;20405;-79
2022/01/29 06:19:29;;;;;;;20.48;14.85;;;;;;;2.61;82.25;101951.66;5014776;28;20412;-79
2022/01/29 06:21:54;;;;;;;22.37;15.37;;;;;;;2.65;82.28;101952.19;5013913;28;20746;-79
2022/01/29 06:24:20;;;;;;;24.80;16.53;;;;;;;2.70;81.82;101949.06;5028050;28;20484;-79
2022/01/29 06:26:45;;;;;;;24.83;16.45;;;;;;;2.74;81.71;101945.03;5029126;28;20910;-79
2022/01/29 06:29:10;;;;;;;25.70;17.10;;;;;;;2.71;82.00;101942.69;5013170;28;20880;-78
2022/01/29 06:31:36;;;;;;;25.97;17.73;;;;;;;2.68;81.77;101935.81;5021749;28;20399;-79
2022/01/29 06:34:01;;;;;;;25.10;17.50;;;;;;;2.71;81.64;101929.28;5018598;28;20419;-79
2022/01/29 06:36:26;;;;;;;26.97;17.67;;;;;;;2.70;81.42;101923.09;5027756;28;20455;-79
2022/01/29 06:38:51;;;;;;;25.53;18.43;;;;;;;2.68;81.90;101921.59;5030289;28;20761;-79
2022/01/29 06:41:17;;;;;;;22.40;17.00;;;;;;;2.76;81.39;101921.66;5022966;28;20413;-79
2022/01/29 06:43:42;;;;;;;26.30;17.77;;;;;;;2.77;81.16;101891.19;5013174;28;20902;-79
2022/01/29 06:46:07;;;;;;;29.37;19.67;;;;;;;2.83;81.06;101902.09;5029422;28;20411;-79
2022/01/29 06:48:33;;;;;;;27.50;18.92;;;;;;;2.81;80.86;101896.06;5030150;28;20419;-79
2022/01/29 06:50:58;;;;;;;28.53;19.13;;;;;;;2.84;80.65;101914.50;5023976;28;20483;-79
2022/01/29 06:53:23;;;;;;;29.10;18.27;;;;;;;2.87;80.94;101922.19;5020251;28;20409;-79
2022/01/29 06:55:50;;;;;;;29.95;19.70;;;;;;;2.78;80.87;101914.28;5015039;28;20408;-79
2022/01/29 06:58:15;;;;;;;29.13;19.07;;;;;;;2.83;80.84;101926.19;5015966;28;20407;-79
2022/01/29 07:00:40;;;;;;;27.30;18.60;;;;;;;2.88;81.07;101926.56;5026858;28;20477;-78
2022/01/29 07:03:06;;;;;;;22.83;17.97;;;;;;;2.88;80.52;101918.53;5032200;28;20399;-79
2022/01/29 07:05:31;;;;;;;26.98;18.85;;;;;;;2.85;80.99;101912.66;5019228;28;20509;-79
2022/01/29 07:07:56;;;;;;;24.60;17.90;;;;;;;2.88;80.67;101909.66;5013708;28;20466;-79
2022/01/29 07:10:22;;;;;;;21.80;16.77;;;;;;;2.89;80.19;101900.63;5018478;28;20418;-79
2022/01/29 07:12:47;;;;;;;21.23;16.33;;;;;;;2.90;80.08;101897.78;5031841;28;20399;-79
2022/01/29 07:15:13;;;;;;;25.17;17.37;;;;;;;2.97;79.74;101898.81;5025256;28;20408;-79
2022/01/29 07:17:39;;;;;;;22.80;16.83;;;;;;;3.01;79.73;101889.47;5014008;28;20397;-79
2022/01/29 07:20:05;;;;;;;21.85;15.73;;;;;;;3.00;79.72;101895.81;5016023;28;20412;-79
2022/01/29 07:22:31;;;;;;;28.58;17.85;;;;;;;2.96;80.14;101907.88;5013283;28;20884;-80
2022/01/29 07:24:56;;;;;;;27.60;16.75;;;;;;;2.98;79.77;101910.38;5012380;28;20539;-79
2022/01/29 07:27:21;;;;;;;24.80;16.70;;;;;;;2.95;79.90;101930.28;5017547;28;20760;-79
2022/01/29 07:29:46;;;;;;;24.63;16.33;;;;;;;2.96;79.61;101920.44;5010054;28;20508;-78
2022/01/29 07:32:13;;;;;;;26.10;16.15;;;;;;;2.95;80.17;101905.34;5017598;28;20403;-78
2022/01/29 07:34:39;;;;;;;22.67;16.10;;;;;;;2.97;80.05;101903.34;5021575;28;20414;-78
2022/01/29 07:37:04;;;;;;;22.30;15.45;;;;;;;3.00;79.72;101906.53;5017793;28;20423;-79
2022/01/29 07:39:30;;;;;;;19.92;14.68;;;;;;;3.03;79.58;101910.75;5014491;28;20407;-79
2022/01/29 07:41:56;;;;;;;21.13;15.20;;;;;;;2.91;80.21;101909.34;5014142;28;20427;-79
2022/01/29 07:44:23;;;;;;;20.65;15.85;;;;;;;2.96;79.85;101893.66;5011600;28;20542;-78
2022/01/29 07:46:48;;;;;;;20.25;15.48;;;;;;;2.95;80.06;101900.84;5019046;28;20744;-80
2022/01/29 07:49:14;;;;;;;21.33;15.43;;;;;;;2.89;80.38;101897.97;5011468;28;20483;-79
2022/01/29 07:51:40;;;;;;;19.90;14.73;;;;;;;2.96;79.85;101899.00;5022602;28;20519;-78
2022/01/29 07:54:06;;;;;;;20.25;14.32;;;;;;;2.99;79.48;101886.13;5020376;28;20495;-79
2022/01/29 07:56:31;;;;;;;19.65;14.98;;;;;;;2.98;79.43;101876.41;5022581;28;20884;-80
2022/01/29 07:58:57;;;;;;;17.63;14.43;;;;;;;3.03;79.32;101882.09;5026962;28;20443;-79
2022/01/29 08:01:22;;;;;;;19.48;14.38;;;;;;;3.21;78.90;101883.84;5009726;28;20507;-79
2022/01/29 08:03:50;;;;;;;17.93;12.80;;;;;;;3.23;79.00;101893.41;5014488;28;20878;-78
2022/01/29 08:06:17;;;;;;;16.73;13.00;;;;;;;3.31;78.14;101881.88;5028062;28;20443;-80
2022/01/29 08:08:42;;;;;;;16.30;12.68;;;;;;;3.34;77.97;101897.63;5020217;28;20426;-80
2022/01/29 08:11:09;;;;;;;19.35;14.15;;;;;;;3.31;77.90;101898.78;5025397;28;20411;-79
2022/01/29 08:13:34;;;;;;;18.53;13.70;;;;;;;3.29;78.32;101900.81;5026270;28;20506;-81
2022/01/29 08:16:00;;;;;;;16.63;12.63;;;;;;;3.41;76.81;101895.97;5018980;28;20488;-80
2022/01/29 08:18:25;;;;;;;17.23;13.30;;;;;;;3.43;77.00;101886.75;5010912;28;20400;-79
2022/01/29 08:20:50;;;;;;;16.83;13.07;;;;;;;3.35;77.37;101893.97;5011028;28;20474;-80
2022/01/29 08:23:16;;;;;;;15.80;12.33;;;;;;;3.30;77.55;101889.06;5019032;28;20540;-80
2022/01/29 08:25:41;;;;;;;16.37;12.10;;;;;;;3.42;76.91;101894.97;5028925;28;20469;-81
2022/01/29 08:28:07;;;;;;;16.50;12.00;;;;;;;3.29;77.83;101892.78;5019495;28;20423;-81
2022/01/29 08:30:32;;;;;;;17.07;12.27;;;;;;;3.31;77.75;101884.56;5029909;28;20410;-80
2022/01/29 08:32:58;;;;;;;17.70;12.27;;;;;;;3.39;77.32;101884.59;5029340;28;20562;-83
2022/01/29 08:35:23;;;;;;;18.83;13.60;;;;;;;3.44;76.92;101869.69;5018221;28;20499;-80
2022/01/29 08:37:49;;;;;;;17.00;12.33;;;;;;;3.48;76.57;101875.56;5022602;28;20502;-80
2022/01/29 08:40:14;;;;;;;15.25;11.80;;;;;;;3.44;77.05;101874.22;5019334;28;20411;-79
2022/01/29 08:42:40;;;;;;;17.07;12.90;;;;;;;3.32;77.03;101860.28;5018380;28;20434;-82
2022/01/29 08:45:07;;;;;;;17.92;12.55;;;;;;;3.36;77.15;101860.81;5024522;28;20761;-79
2022/01/29 08:47:33;;;;;;;15.13;11.80;;;;;;;3.49;77.09;101875.38;5038389;28;20506;-80
2022/01/29 08:50:00;;;;;;;15.50;11.95;;;;;;;3.55;76.72;101872.06;5015533;28;20443;-82
2022/01/29 08:52:26;;;;;;;17.60;13.35;;;;;;;3.64;76.24;101878.28;5023441;28;20413;-79
2022/01/29 08:54:52;;;;;;;15.05;11.40;;;;;;;3.73;75.73;101868.38;5029227;28;20401;-80
2022/01/29 08:57:17;;;;;;;17.87;13.07;;;;;;;3.78;75.55;101863.38;5027189;28;20885;-80
2022/01/29 08:59:42;;;;;;;16.30;12.10;;;;;;;3.79;75.42;101847.09;5032831;28;20436;-81
2022/01/29 09:02:08;;;;;;;17.20;12.18;;;;;;;3.83;75.17;101844.94;5018072;28;20878;-80
2022/01/29 09:04:33;;;;;;;15.05;11.23;;;;;;;3.97;74.69;101852.31;5028053;28;20404;-81
2022/01/29 09:06:58;;;;;;;16.63;11.90;;;;;;;3.99;74.29;101861.03;5025286;28;20484;-81
2022/01/29 09:09:26;;;;;;;16.63;12.13;;;;;;;3.92;74.87;101863.53;5025707;28;20444;-80
2022/01/29 09:11:52;;;;;;;17.35;12.27;;;;;;;3.93;75.18;101853.66;5019688;28;20461;-81
2022/01/29 09:14:19;;;;;;;16.23;12.43;;;;;;;3.91;75.28;101847.63;5025582;28;20499;-80
2022/01/29 09:16:44;;;;;;;16.85;11.80;;;;;;;3.95;75.37;101857.03;5030752;28;20405;-81
2022/01/29 09:19:10;;;;;;;14.87;12.33;;;;;;;4.22;74.18;101853.13;5017769;28;20443;-81
2022/01/29 09:21:35;;;;;;;16.83;12.57;;;;;;;4.34;74.24;101860.69;5022610;28;20736;-80
2022/01/29 09:24:00;;;;;;;16.77;12.03;;;;;;;4.49;73.33;101850.06;5029499;28;20392;-82
2022/01/29 09:26:26;;;;;;;18.15;13.70;;;;;;;4.40;74.32;101853.78;5022175;28;20947;-81
2022/01/29 09:28:51;;;;;;;18.77;12.40;;;;;;;4.48;74.10;101856.47;5025865;28;20493;-81
2022/01/29 09:31:17;;;;;;;18.17;13.27;;;;;;;4.46;74.24;101851.25;5024671;28;20435;-80
2022/01/29 09:33:42;;;;;;;19.23;13.50;;;;;;;4.38;74.88;101855.81;5026869;28;20890;-81
2022/01/29 09:36:07;;;;;;;16.83;12.87;;;;;;;4.30;75.17;101856.66;5034030;28;20529;-82
2022/01/29 09:38:33;;;;;;;18.93;13.07;;;;;;;4.22;75.87;101877.28;5021717;28;20440;-81
2022/01/29 09:40:59;;;;;;;16.87;12.60;;;;;;;4.14;76.13;101862.88;5020206;28;20427;-81
2022/01/29 09:43:28;;;;;;;17.70;12.35;;;;;;;4.11;76.63;101857.84;5024371;28;20426;-81
2022/01/29 09:45:54;;;;;;;19.40;13.65;;;;;;;4.11;77.06;101865.06;5020546;28;20759;-81
2022/01/29 09:48:21;;;;;;;15.68;10.98;;;;;;;4.06;76.53;101857.50;5033614;28;20495;-81
2022/01/29 09:50:47;;;;;;;16.05;10.93;;;;;;;3.92;77.32;101857.38;5030379;28;20485;-82
2022/01/29 09:53:12;;;;;;;17.07;11.53;;;;;;;3.77;78.49;101869.75;5019011;28;20436;-80
2022/01/29 09:55:38;;;;;;;15.87;10.97;;;;;;;3.72;78.26;101872.09;5018160;28;20410;-79
2022/01/29 09:58:03;;;;;;;15.57;11.33;;;;;;;3.80;78.33;101869.41;5026437;28;20435;-80
2022/01/29 10:00:28;;;;;;;16.97;11.80;;;;;;;3.90;78.32;101859.34;5030519;28;20402;-79
2022/01/29 10:03:13;;;;;;;16.83;11.07;;;;;;;4.02;78.42;101871.41;5018777;28;20575;-79
2022/01/29 10:05:46;;;;;;;13.65;10.65;;;;;;;4.02;78.41;101866.91;5013553;28;20397;-81
2022/01/29 10:08:13;;;;;;;13.18;10.40;;;;;;;4.12;78.49;101874.75;5026177;28;20781;-80
2022/01/29 10:10:54;;;;;;;15.55;10.43;;;;;;;4.25;78.50;101860.88;5022283;28;20780;-79
2022/01/29 10:13:33;;;;;;;17.02;10.95;;;;;;;4.24;78.14;101861.88;5029240;28;20402;-79
2022/01/29 10:16:29;;;;;;;13.70;10.23;;;;;;;4.19;78.48;101852.47;5018820;28;20576;-79
2022/01/29 10:19:03;;;;;;;16.27;10.88;;;;;;;4.12;78.69;101856.84;5021339;28;20757;-80
2022/01/29 10:21:41;;;;;;;14.50;10.38;;;;;;;4.19;78.77;101855.16;5013463;28;20740;-80
2022/01/29 10:24:12;;;;;;;13.80;10.18;;;;;;;4.32;78.43;101849.25;5026363;28;20406;-80
2022/01/29 10:26:40;;;;;;;11.65;9.60;;;;;;;4.43;78.03;101845.38;5013723;28;20419;-82
2022/01/29 10:29:20;;;;;;;14.50;11.07;;;;;;;4.43;78.04;101842.69;5038124;28;20412;-80
2022/01/29 10:31:47;;;;;;;16.63;10.65;;;;;;;4.43;77.82;101840.88;5031032;28;20914;-81
2022/01/29 10:34:27;;;;;;;15.35;11.10;;;;;;;4.33;78.17;101834.84;5024041;28;20404;-79
2022/01/29 10:37:20;;;;;;;13.73;10.57;;;;;;;4.60;77.78;101833.59;5030542;28;20464;-85
2022/01/29 10:39:47;;;;;;;14.75;11.13;;;;;;;4.61;77.66;101835.28;5028255;28;20407;-83
2022/01/29 10:42:18;;;;;;;16.27;12.77;;;;;;;4.55;77.62;101827.91;5027042;28;20446;-85
2022/01/29 10:44:48;;;;;;;13.60;10.88;;;;;;;4.61;77.43;101825.34;5031319;28;20406;-82
2022/01/29 10:47:15;;;;;;;12.65;9.70;;;;;;;4.58;77.47;101830.22;5021746;28;20848;-89
2022/01/29 10:49:59;;;;;;;14.13;9.30;;;;;;;4.56;77.53;101829.59;5021048;28;20409;-90
2022/01/29 10:52:32;;;;;;;11.98;9.25;;;;;;;4.45;78.21;101822.72;5030324;28;20391;-89
2022/01/29 10:55:07;;;;;;;12.18;9.10;;;;;;;4.45;77.89;101806.63;5025557;28;20780;-86
2022/01/29 10:57:35;;;;;;;13.93;8.77;;;;;;;4.38;78.42;101815.56;5032186;28;20412;-85
2022/01/29 11:00:03;;;;;;;11.90;8.88;;;;;;;4.39;78.38;101811.84;5029637;28;20952;-85
2022/01/29 11:02:30;;;;;;;10.88;8.35;;;;;;;4.28;78.14;101812.22;5028223;28;20849;-86
2022/01/29 11:04:57;;;;;;;10.88;8.80;;;;;;;4.16;78.87;101806.34;5027472;28;20404;-86
2022/01/29 11:07:27;;;;;;;10.75;7.93;;;;;;;4.21;78.42;101798.66;5024855;28;20497;-87
2022/01/29 11:09:53;;;;;;;10.10;8.07;;;;;;;4.32;78.36;101794.75;5021959;28;20491;-88
2022/01/29 11:12:23;;;;;;;10.02;7.82;;;;;;;4.52;77.43;101802.25;5012504;28;20952;-87
2022/01/29 11:14:51;;;;;;;11.35;8.10;;;;;;;4.56;77.10;101794.69;5035344;28;20399;-85
2022/01/29 11:17:18;;;;;;;9.70;7.25;;;;;;;4.50;76.85;101788.16;5016472;28;20421;-86
2022/01/29 11:19:44;;;;;;;6.97;6.00;;;;;;;4.59;76.36;101787.13;5018484;28;20461;-85
2022/01/29 11:22:10;;;;;;;7.97;7.05;;;;;;;4.75;75.80;101788.88;5025336;28;20874;-84
2022/01/29 11:24:37;;;;;;;9.23;7.32;;;;;;;4.85;75.34;101784.16;5026101;28;20399;-85
2022/01/29 11:27:19;;;;;;;8.20;6.75;;;;;;;4.92;74.66;101766.31;5027318;28;20415;-83